createdAt,value
2023-03-22T00:01:19.720Z,33.00
2023-03-22T00:03:47.662Z,31.48
2023-03-22T00:06:15.136Z,31.25
2023-03-22T00:08:42.164Z,30.60
2023-03-22T00:11:09.217Z,31.98
2023-03-22T00:13:37.377Z,31.80
2023-03-22T00:16:05.622Z,30.60
2023-03-22T00:18:32.860Z,30.83
2023-03-22T00:21:00.607Z,32.50
2023-03-22T00:23:28.767Z,32.97
2023-03-22T00:25:56.119Z,30.80
2023-03-22T00:28:23.608Z,31.20
2023-03-22T00:30:56.333Z,32.92
2023-03-22T00:33:23.372Z,32.17
2023-03-22T00:35:52.197Z,32.00
2023-03-22T00:38:27.164Z,32.30
2023-03-22T00:41:06.173Z,32.53
2023-03-22T00:43:33.114Z,31.58
2023-03-22T00:46:00.004Z,32.55
2023-03-22T00:48:27.006Z,32.85
2023-03-22T00:50:54.026Z,33.78
2023-03-22T00:53:23.334Z,32.47
2023-03-22T00:55:50.391Z,34.30
2023-03-22T00:58:17.348Z,33.65
2023-03-22T01:00:45.192Z,33.15
2023-03-22T01:03:14.353Z,32.72
2023-03-22T01:05:41.522Z,33.67
2023-03-22T01:08:12.976Z,33.40
2023-03-22T01:10:41.119Z,33.05
2023-03-22T01:13:08.858Z,33.03
2023-03-22T01:15:36.713Z,32.75
2023-03-22T01:18:04.036Z,34.33
2023-03-22T01:20:31.757Z,33.38
2023-03-22T01:22:59.499Z,35.30
2023-03-22T01:25:26.585Z,33.22
2023-03-22T01:27:54.138Z,32.88
2023-03-22T01:30:20.982Z,34.08
2023-03-22T01:32:47.974Z,32.45
2023-03-22T01:35:15.045Z,30.55
2023-03-22T01:37:42.613Z,33.85
2023-03-22T01:40:16.496Z,33.13
2023-03-22T01:42:43.563Z,33.83
2023-03-22T01:45:13.674Z,32.83
2023-03-22T01:47:56.455Z,33.70
2023-03-22T01:50:24.288Z,31.95
2023-03-22T01:52:51.580Z,32.20
2023-03-22T01:55:18.787Z,31.50
2023-03-22T01:57:46.068Z,31.40
2023-03-22T02:00:15.808Z,32.70
2023-03-22T02:02:44.456Z,32.90
2023-03-22T02:05:12.425Z,33.50
2023-03-22T02:07:41.245Z,32.38
2023-03-22T02:10:16.512Z,34.33
2023-03-22T02:13:15.856Z,32.55
2023-03-22T02:16:05.090Z,31.75
2023-03-22T02:19:10.556Z,31.83
2023-03-22T02:21:43.620Z,33.15
2023-03-22T02:24:38.763Z,32.05
2023-03-22T02:27:16.327Z,33.90
2023-03-22T02:30:05.327Z,32.42
2023-03-22T02:32:57.301Z,32.33
2023-03-22T02:35:47.130Z,31.00
2023-03-22T02:38:47.981Z,31.92
2023-03-22T02:41:33.057Z,32.50
2023-03-22T02:44:15.036Z,30.27
2023-03-22T02:46:46.579Z,30.45
2023-03-22T02:49:26.447Z,30.27
2023-03-22T02:52:28.177Z,31.63
2023-03-22T02:55:07.807Z,32.42
2023-03-22T02:57:53.020Z,30.70
2023-03-22T03:00:21.028Z,30.73
2023-03-22T03:02:51.898Z,30.48
2023-03-22T03:05:20.769Z,31.70
2023-03-22T03:07:51.516Z,30.23
2023-03-22T03:10:18.846Z,29.95
2023-03-22T03:12:46.240Z,31.45
2023-03-22T03:15:16.388Z,32.17
2023-03-22T03:18:11.582Z,29.42
2023-03-22T03:20:46.614Z,32.03
2023-03-22T03:23:33.753Z,32.72
2023-03-22T03:26:03.665Z,33.70
2023-03-22T03:28:43.425Z,32.60
2023-03-22T03:31:10.383Z,34.53
2023-03-22T03:33:44.352Z,31.67
2023-03-22T03:36:13.394Z,31.52
2023-03-22T03:38:43.939Z,31.33
2023-03-22T03:41:14.931Z,33.00
2023-03-22T03:43:42.923Z,31.52
2023-03-22T03:46:10.149Z,31.85
2023-03-22T03:48:39.128Z,33.67
2023-03-22T03:51:06.299Z,31.13
2023-03-22T03:53:33.321Z,31.48
2023-03-22T03:56:00.314Z,33.17
2023-03-22T03:58:27.229Z,35.60
2023-03-22T04:00:54.443Z,32.58
2023-03-22T04:03:21.476Z,30.38
2023-03-22T04:05:48.516Z,33.33
2023-03-22T04:08:15.384Z,32.78
2023-03-22T04:10:42.391Z,32.05
2023-03-22T04:13:09.301Z,33.28
2023-03-22T04:15:36.282Z,34.72
2023-03-22T04:18:03.522Z,35.08
2023-03-22T04:20:30.367Z,32.80
2023-03-22T04:22:58.192Z,33.80
2023-03-22T04:25:30.385Z,33.13
2023-03-22T04:27:57.594Z,34.97
2023-03-22T04:30:24.886Z,37.38
2023-03-22T04:32:51.900Z,34.25
2023-03-22T04:35:19.035Z,34.92
2023-03-22T04:37:46.145Z,35.08
2023-03-22T04:40:16.440Z,35.38
2023-03-22T04:42:44.654Z,35.75
2023-03-22T04:45:12.458Z,34.95
2023-03-22T04:47:39.757Z,36.38
2023-03-22T04:50:08.411Z,34.00
2023-03-22T04:52:35.571Z,34.45
2023-03-22T04:55:02.565Z,35.10
2023-03-22T04:57:29.545Z,34.72
2023-03-22T04:59:56.535Z,34.17
2023-03-22T05:02:23.571Z,36.15
2023-03-22T05:04:50.998Z,34.30
2023-03-22T05:07:18.020Z,33.75
2023-03-22T05:09:44.978Z,38.97
2023-03-22T05:12:12.245Z,38.72
2023-03-22T05:14:39.363Z,35.25
2023-03-22T05:17:06.649Z,35.20
2023-03-22T05:19:33.503Z,37.72
2023-03-22T05:22:02.086Z,34.45
2023-03-22T05:24:30.540Z,35.25
2023-03-22T05:27:01.150Z,35.70
2023-03-22T05:29:28.644Z,33.58
2023-03-22T05:31:55.810Z,35.85
2023-03-22T05:34:22.818Z,34.55
2023-03-22T05:36:51.675Z,35.33
2023-03-22T05:39:19.037Z,34.92
2023-03-22T05:41:46.551Z,35.55
2023-03-22T05:44:13.495Z,35.22
2023-03-22T05:46:40.398Z,34.42
2023-03-22T05:49:07.409Z,35.53
2023-03-22T05:51:41.459Z,35.97
2023-03-22T05:54:09.791Z,34.90
2023-03-22T05:56:37.039Z,30.98
2023-03-22T05:59:05.070Z,33.85
2023-03-22T06:01:33.667Z,33.90
2023-03-22T06:04:00.908Z,33.90
2023-03-22T06:06:28.233Z,34.55
2023-03-22T06:09:01.682Z,34.35
2023-03-22T06:11:35.584Z,32.83
2023-03-22T06:14:04.938Z,33.63
2023-03-22T06:16:32.522Z,34.78
2023-03-22T06:19:00.326Z,35.65
2023-03-22T06:21:27.410Z,34.08
2023-03-22T06:23:55.452Z,34.20
2023-03-22T06:26:22.670Z,34.65
2023-03-22T06:28:49.793Z,33.63
2023-03-22T06:31:16.784Z,33.85
2023-03-22T06:33:45.758Z,34.40
2023-03-22T06:36:12.824Z,35.28
2023-03-22T06:38:39.694Z,35.67
2023-03-22T06:41:06.654Z,34.78
2023-03-22T06:43:33.660Z,36.45
2023-03-22T06:46:00.966Z,35.65
2023-03-22T06:48:27.974Z,36.25
2023-03-22T06:50:55.127Z,35.83
2023-03-22T06:53:22.007Z,35.05
2023-03-22T06:55:49.757Z,36.78
2023-03-22T06:58:16.633Z,35.13
2023-03-22T07:00:43.702Z,34.80
2023-03-22T07:03:10.777Z,34.20
2023-03-22T07:05:38.067Z,33.78
2023-03-22T07:08:21.280Z,33.88
2023-03-22T07:10:51.533Z,34.38
2023-03-22T07:13:18.417Z,35.70
2023-03-22T07:15:45.431Z,33.63
2023-03-22T07:18:12.541Z,33.08
2023-03-22T07:20:45.571Z,30.35
2023-03-22T07:23:12.567Z,30.30
2023-03-22T07:25:39.503Z,30.67
2023-03-22T07:28:07.032Z,31.15
2023-03-22T07:30:37.876Z,30.95
2023-03-22T07:33:08.456Z,29.30
2023-03-22T07:35:36.975Z,30.60
2023-03-22T07:38:05.255Z,28.92
2023-03-22T07:40:32.704Z,29.23
2023-03-22T07:42:59.597Z,28.52
2023-03-22T07:45:26.818Z,30.10
2023-03-22T07:47:53.849Z,27.92
2023-03-22T07:50:20.884Z,27.13
2023-03-22T07:52:48.053Z,26.90
2023-03-22T07:55:15.501Z,26.20
2023-03-22T07:57:42.507Z,26.02
2023-03-22T08:00:10.715Z,27.73
2023-03-22T08:02:38.862Z,26.88
2023-03-22T08:05:07.495Z,25.90
2023-03-22T08:07:34.601Z,25.40
2023-03-22T08:10:01.435Z,26.08
2023-03-22T08:12:28.335Z,26.08
2023-03-22T08:14:57.936Z,26.98
2023-03-22T08:17:26.315Z,25.05
2023-03-22T08:19:56.527Z,25.48
2023-03-22T08:22:26.105Z,24.40
2023-03-22T08:24:53.030Z,25.90
2023-03-22T08:27:20.137Z,25.63
2023-03-22T08:29:48.933Z,23.20
2023-03-22T08:32:16.791Z,24.60
2023-03-22T08:34:44.050Z,25.45
2023-03-22T08:37:13.913Z,23.23
2023-03-22T08:39:40.852Z,24.05
2023-03-22T08:42:07.674Z,23.48
2023-03-22T08:44:34.822Z,23.80
2023-03-22T08:47:03.106Z,21.67
2023-03-22T08:49:31.503Z,20.33
2023-03-22T08:51:58.483Z,19.40
2023-03-22T08:54:28.144Z,20.02
2023-03-22T08:56:55.212Z,20.45
2023-03-22T08:59:23.706Z,20.27
2023-03-22T09:01:50.661Z,21.30
2023-03-22T09:04:17.693Z,23.08
2023-03-22T09:06:45.651Z,22.40
2023-03-22T09:09:13.111Z,21.95
2023-03-22T09:11:41.507Z,22.05
2023-03-22T09:14:10.798Z,19.88
2023-03-22T09:16:37.914Z,21.73
2023-03-22T09:19:04.916Z,19.95
2023-03-22T09:21:31.796Z,20.92
2023-03-22T09:23:58.802Z,19.73
2023-03-22T09:26:25.772Z,19.20
2023-03-22T09:28:53.970Z,19.10
2023-03-22T09:31:21.285Z,19.23
2023-03-22T09:33:48.364Z,19.08
2023-03-22T09:36:15.925Z,18.77
2023-03-22T09:38:43.067Z,17.80
2023-03-22T09:41:18.050Z,18.80
2023-03-22T09:43:57.788Z,17.30
2023-03-22T09:46:31.399Z,19.17
2023-03-22T09:49:03.466Z,18.80
2023-03-22T09:51:36.101Z,18.98
2023-03-22T09:54:03.342Z,18.88
2023-03-22T09:56:31.429Z,17.33
2023-03-22T09:59:01.142Z,16.63
2023-03-22T10:02:05.065Z,16.67
2023-03-22T10:04:40.333Z,14.68
2023-03-22T10:07:27.381Z,14.32
2023-03-22T10:10:29.106Z,16.40
2023-03-22T10:13:19.772Z,14.13
2023-03-22T10:15:50.672Z,15.65
2023-03-22T10:18:47.280Z,13.73
2023-03-22T10:21:16.570Z,13.40
2023-03-22T10:23:46.922Z,12.93
2023-03-22T10:26:24.962Z,14.05
2023-03-22T10:29:06.067Z,14.10
2023-03-22T10:31:34.482Z,14.43
2023-03-22T10:34:16.637Z,13.82
2023-03-22T10:36:44.924Z,14.30
2023-03-22T10:39:28.295Z,13.57
2023-03-22T10:41:58.144Z,14.65
2023-03-22T10:44:26.403Z,13.45
2023-03-22T10:46:56.092Z,14.32
2023-03-22T10:49:27.943Z,14.40
2023-03-22T10:51:58.092Z,11.95
2023-03-22T10:54:26.736Z,13.45
2023-03-22T10:56:53.843Z,13.90
2023-03-22T10:59:49.271Z,14.15
2023-03-22T11:02:27.863Z,13.90
2023-03-22T11:05:00.395Z,14.02
2023-03-22T11:07:33.661Z,13.68
2023-03-22T11:10:09.595Z,13.75
2023-03-22T11:12:46.794Z,15.43
2023-03-22T11:15:32.336Z,13.98
2023-03-22T11:18:15.129Z,13.45
2023-03-22T11:20:44.288Z,13.18
2023-03-22T11:23:13.469Z,13.52
2023-03-22T11:25:47.230Z,12.88
2023-03-22T11:28:35.229Z,12.85
2023-03-22T11:31:05.878Z,12.02
2023-03-22T11:33:33.274Z,11.35
2023-03-22T11:36:02.698Z,11.68
2023-03-22T11:38:38.792Z,11.80
2023-03-22T11:41:08.907Z,11.65
2023-03-22T11:43:36.698Z,12.75
2023-03-22T11:46:04.851Z,11.20
2023-03-22T11:48:32.971Z,10.90
2023-03-22T11:51:08.474Z,10.70
2023-03-22T11:53:38.726Z,10.43
2023-03-22T11:56:07.761Z,10.98
2023-03-22T11:58:37.673Z,11.18
2023-03-22T12:01:06.041Z,10.77
2023-03-22T12:03:41.023Z,11.07
2023-03-22T12:06:22.397Z,10.80
2023-03-22T12:08:56.546Z,10.35
2023-03-22T12:11:40.768Z,10.77
2023-03-22T12:14:18.539Z,10.52
2023-03-22T12:16:51.810Z,10.57
2023-03-22T12:19:55.894Z,11.32
2023-03-22T12:22:33.272Z,10.60
2023-03-22T12:25:01.642Z,10.48
2023-03-22T12:27:35.251Z,10.15
2023-03-22T12:30:08.496Z,9.50
2023-03-22T12:32:38.961Z,9.57
2023-03-22T12:35:17.204Z,9.20
2023-03-22T12:37:48.431Z,9.38
2023-03-22T12:40:24.360Z,8.90
2023-03-22T12:43:17.205Z,9.65
2023-03-22T12:45:49.219Z,9.68
2023-03-22T12:48:37.132Z,8.40
2023-03-22T12:51:14.804Z,8.45
2023-03-22T12:53:48.174Z,8.82
2023-03-22T12:56:33.995Z,8.45
2023-03-22T12:59:05.957Z,8.40
2023-03-22T13:01:52.318Z,9.13
2023-03-22T13:04:37.832Z,8.60
2023-03-22T13:07:31.580Z,9.75
2023-03-22T13:10:00.363Z,9.57
2023-03-22T13:12:30.386Z,8.93
2023-03-22T13:15:04.160Z,8.48
2023-03-22T13:17:33.631Z,9.98
2023-03-22T13:20:02.016Z,9.20
2023-03-22T13:22:51.045Z,8.40
2023-03-22T13:25:19.056Z,7.88
2023-03-22T13:27:46.176Z,8.63
2023-03-22T13:30:16.201Z,8.00
2023-03-22T13:33:08.857Z,8.38
2023-03-22T13:35:46.543Z,8.90
2023-03-22T13:38:22.073Z,7.97
2023-03-22T13:40:52.200Z,8.65
2023-03-22T13:43:34.827Z,9.25
2023-03-22T13:46:08.149Z,9.77
2023-03-22T13:48:47.177Z,10.02
2023-03-22T13:51:23.328Z,9.60
2023-03-22T13:53:55.967Z,10.90
2023-03-22T13:56:33.987Z,10.43
2023-03-22T13:59:03.897Z,10.80
2023-03-22T14:01:56.847Z,9.23
2023-03-22T14:04:42.700Z,9.48
2023-03-22T14:07:31.654Z,9.80
2023-03-22T14:10:15.131Z,10.23
2023-03-22T14:12:48.146Z,9.20
2023-03-22T14:15:30.569Z,9.10
2023-03-22T14:18:29.321Z,9.05
2023-03-22T14:21:00.884Z,9.85
